Mariemont, Ohio
Current Conditions -  °F | °C
As of 2:53 AM on Friday 28 Nov 2014 (Local Time) from KLUK Reporting Station
Broken Clouds Broken Clouds  
Wind Chill: 26°   Ceiling: 4700
Heat Index: 26°   Visibility: 10mi
Dew Point: 15°   Wind: 0mph
Humidity: 63%   Direction: NA
Pressure: 30.42"   Gusts: NA
Location:  39.1518°N, 84.3852°W
Report Text: KLUK 280753Z AUTO 00000KT 10SM FEW036 BKN047 M03/M09 A3042 RMK AO2 SLP306 T10331094
Loading
Personal Weather Stations






























Interactive Weather Map New forecast layout! Learn more

10-Day Weather Forecast

Advertisements
Track Severe Weather on mobile